createdAt,value
2019-02-07T04:06:18.898Z,2.61
2019-02-07T04:07:25.634Z,2.65
2019-02-07T04:08:23.784Z,2.72
2019-02-07T04:09:20.963Z,2.54
2019-02-07T04:10:20.731Z,2.53
2019-02-07T04:11:22.268Z,2.53
2019-02-07T04:12:18.390Z,2.67
2019-02-07T04:13:21.971Z,2.65
2019-02-07T04:14:19.511Z,2.47
2019-02-07T04:15:22.121Z,2.47
2019-02-07T04:16:18.973Z,2.50
2019-02-07T04:17:23.466Z,2.54
2019-02-07T04:18:19.457Z,2.54
2019-02-07T04:19:20.014Z,2.50
2019-02-07T04:20:20.766Z,2.62
2019-02-07T04:21:19.465Z,2.54
2019-02-07T04:22:19.659Z,2.64
2019-02-07T04:23:18.797Z,2.68
2019-02-07T04:24:18.741Z,2.74
2019-02-07T04:25:18.831Z,2.74
2019-02-07T04:26:18.701Z,2.82
2019-02-07T04:27:18.508Z,2.87
2019-02-07T04:28:19.005Z,2.90
2019-02-07T04:29:19.298Z,2.83
2019-02-07T04:30:19.080Z,2.87
2019-02-07T04:31:19.128Z,2.90
2019-02-07T04:32:19.574Z,2.83
2019-02-07T04:33:20.454Z,2.90
2019-02-07T04:34:21.021Z,2.95
2019-02-07T04:35:23.196Z,2.92
2019-02-07T04:36:22.551Z,3.00
2019-02-07T04:37:21.153Z,2.95
2019-02-07T04:38:20.743Z,3.00
2019-02-07T04:40:20.762Z,2.95
2019-02-07T04:41:20.924Z,3.03
2019-02-07T04:42:21.817Z,3.03
2019-02-07T04:43:20.914Z,3.14
2019-02-07T04:44:21.799Z,3.10
2019-02-07T04:45:21.441Z,3.08
2019-02-07T04:46:27.268Z,3.13
2019-02-07T04:47:22.034Z,3.19
2019-02-07T04:48:21.856Z,3.08
2019-02-07T04:49:23.226Z,2.95
2019-02-07T04:50:23.037Z,2.95
2019-02-07T04:51:22.409Z,2.97
2019-02-07T04:52:22.465Z,3.00
2019-02-07T04:53:23.659Z,3.00
2019-02-07T04:54:23.145Z,3.13
2019-02-07T04:55:22.983Z,3.11
2019-02-07T04:56:23.840Z,3.10
2019-02-07T04:57:23.691Z,3.18
2019-02-07T04:58:24.107Z,3.22
2019-02-07T04:59:24.322Z,3.21
2019-02-07T05:00:24.825Z,3.22
2019-02-07T05:01:24.605Z,3.28
2019-02-07T05:02:24.881Z,3.31
2019-02-07T05:03:25.451Z,3.32
2019-02-07T05:04:25.171Z,3.23
2019-02-07T05:05:25.370Z,3.29
2019-02-07T05:06:25.492Z,3.34
2019-02-07T05:07:25.198Z,3.34
2019-02-07T05:08:25.445Z,3.29
2019-02-07T05:09:26.109Z,3.42
2019-02-07T05:10:26.044Z,3.48
2019-02-07T05:11:26.533Z,3.44
2019-02-07T05:12:26.388Z,3.42
2019-02-07T05:13:26.390Z,3.47
2019-02-07T05:15:26.552Z,3.42
2019-02-07T05:16:38.703Z,3.31
2019-02-07T05:17:28.983Z,3.36
2019-02-07T05:18:27.304Z,3.31
2019-02-07T05:19:28.139Z,3.36
2019-02-07T05:20:27.435Z,3.32
2019-02-07T05:21:28.278Z,3.31
2019-02-07T05:22:28.721Z,3.21
2019-02-07T05:23:29.031Z,3.23
2019-02-07T05:24:27.931Z,3.23
2019-02-07T05:25:28.308Z,3.21
2019-02-07T05:26:28.630Z,3.08
2019-02-07T05:27:29.110Z,3.22
2019-02-07T05:28:29.046Z,3.31
2019-02-07T05:29:29.344Z,3.31
2019-02-07T05:30:31.117Z,3.31
2019-02-07T05:31:29.271Z,3.31
2019-02-07T05:32:29.768Z,3.26
2019-02-07T05:33:29.364Z,3.26
2019-02-07T05:34:30.118Z,3.40
2019-02-07T05:35:30.336Z,3.26
2019-02-07T05:36:32.199Z,3.23
2019-02-07T05:37:30.924Z,3.21
2019-02-07T05:38:30.200Z,3.37
2019-02-07T05:39:30.636Z,3.31
2019-02-07T05:40:30.785Z,3.31
2019-02-07T05:41:31.528Z,3.40
2019-02-07T05:42:31.018Z,3.41
2019-02-07T05:43:31.180Z,3.31
2019-02-07T05:44:31.601Z,3.40
2019-02-07T05:45:31.404Z,3.29
2019-02-07T05:46:32.207Z,3.32
2019-02-07T05:47:31.813Z,3.36
2019-02-07T05:48:32.035Z,3.36
2019-02-07T05:49:31.798Z,3.34
2019-02-07T05:50:32.265Z,3.34
2019-02-07T05:51:51.517Z,3.37
2019-02-07T05:52:39.676Z,3.28
2019-02-07T05:53:47.725Z,3.25
2019-02-07T05:54:37.937Z,3.34
2019-02-07T05:57:18.269Z,3.28
2019-02-07T05:58:20.152Z,3.37
2019-02-07T05:59:22.063Z,3.28
2019-02-07T06:00:20.546Z,3.37
2019-02-07T06:01:18.467Z,3.44
2019-02-07T06:02:18.856Z,3.45
2019-02-07T06:03:20.138Z,3.40
2019-02-07T06:07:23.260Z,3.47
2019-02-07T06:10:37.008Z,3.42
2019-02-07T06:11:39.437Z,3.55
2019-02-07T06:12:38.110Z,3.69
2019-02-07T06:13:39.185Z,3.53
2019-02-07T06:14:39.171Z,3.56
2019-02-07T06:15:39.787Z,3.48
2019-02-07T06:17:38.507Z,3.63
2019-02-07T06:18:35.744Z,3.56
2019-02-07T06:19:36.102Z,3.48
2019-02-07T06:20:35.825Z,3.53
2019-02-07T06:21:36.056Z,3.63
2019-02-07T06:22:36.248Z,3.58
2019-02-07T06:23:36.329Z,3.55
2019-02-07T06:24:36.578Z,3.60
2019-02-07T06:25:36.625Z,3.59
2019-02-07T06:26:36.807Z,3.66
2019-02-07T06:27:36.897Z,3.40
2019-02-07T06:28:37.015Z,3.42
2019-02-07T06:29:37.309Z,3.42
2019-02-07T06:30:37.669Z,3.37
2019-02-07T06:31:37.574Z,3.41
2019-02-07T06:32:37.651Z,3.41
2019-02-07T06:33:37.960Z,3.42
2019-02-07T06:34:38.205Z,3.44
2019-02-07T06:35:38.295Z,3.44
2019-02-07T06:36:38.454Z,3.44
2019-02-07T06:37:38.753Z,3.41
2019-02-07T06:38:39.573Z,3.41
2019-02-07T06:39:39.654Z,3.41
2019-02-07T06:40:39.421Z,3.41
2019-02-07T06:41:39.868Z,3.44
2019-02-07T06:42:40.020Z,3.36
2019-02-07T06:43:39.801Z,3.37
2019-02-07T06:44:39.955Z,3.34
2019-02-07T06:45:39.822Z,3.28
2019-02-07T06:46:40.058Z,3.34
2019-02-07T06:47:40.245Z,3.29
2019-02-07T06:48:40.410Z,3.22
2019-02-07T06:49:40.658Z,3.23
2019-02-07T06:50:40.692Z,3.21
2019-02-07T06:51:40.861Z,3.11
2019-02-07T06:52:41.033Z,3.13
2019-02-07T06:53:43.381Z,3.10
2019-02-07T06:54:41.986Z,3.08
2019-02-07T06:55:47.718Z,3.10
2019-02-07T06:56:41.696Z,3.18
2019-02-07T06:57:43.212Z,3.21
2019-02-07T06:58:45.025Z,3.10
2019-02-07T06:59:44.715Z,3.26
2019-02-07T07:00:49.656Z,3.14
2019-02-07T07:01:44.302Z,3.10
2019-02-07T07:02:43.819Z,3.10
2019-02-07T07:03:47.337Z,3.10
2019-02-07T07:04:45.519Z,3.05
2019-02-07T07:05:44.873Z,3.03
2019-02-07T07:06:51.123Z,3.08
2019-02-07T07:07:47.004Z,3.11
2019-02-07T07:08:45.296Z,3.11
2019-02-07T07:09:44.614Z,3.14
2019-02-07T07:10:44.278Z,3.10
2019-02-07T07:11:44.919Z,3.08
2019-02-07T07:12:45.037Z,3.04
2019-02-07T07:13:46.381Z,3.05
2019-02-07T07:14:45.999Z,3.04
2019-02-07T07:15:45.909Z,2.97
2019-02-07T07:16:46.772Z,2.95
2019-02-07T07:17:46.046Z,2.89
2019-02-07T07:18:56.850Z,2.87
2019-02-07T07:21:28.627Z,2.85
2019-02-07T07:26:22.563Z,3.03
2019-02-07T07:27:27.761Z,3.01
2019-02-07T07:28:23.364Z,2.95
2019-02-07T07:29:22.669Z,3.01
2019-02-07T07:30:23.237Z,3.18
2019-02-07T07:31:22.854Z,3.10
2019-02-07T07:32:23.692Z,3.10
2019-02-07T07:34:23.216Z,3.16
2019-02-07T07:35:23.743Z,3.10
2019-02-07T07:36:21.798Z,3.08
2019-02-07T07:37:24.957Z,3.08
2019-02-07T07:38:22.335Z,3.19
2019-02-07T07:39:22.326Z,3.16
2019-02-07T07:40:23.775Z,3.21
2019-02-07T07:41:24.574Z,3.07
2019-02-07T07:42:26.220Z,3.14
2019-02-07T07:43:41.958Z,3.13
2019-02-07T07:44:26.142Z,3.14
2019-02-07T07:45:25.715Z,3.03
2019-02-07T07:47:35.695Z,3.01
2019-02-07T07:48:27.833Z,3.14
2019-02-07T07:49:26.808Z,3.04
2019-02-07T07:50:26.590Z,3.13
2019-02-07T07:51:26.743Z,3.07
2019-02-07T07:52:28.258Z,3.18
2019-02-07T07:53:26.606Z,3.16
2019-02-07T07:54:25.281Z,3.13
2019-02-07T07:55:25.141Z,3.10
2019-02-07T07:56:27.572Z,3.08
2019-02-07T07:57:26.581Z,3.13
2019-02-07T07:58:25.855Z,3.14
2019-02-07T07:59:26.916Z,3.13
2019-02-07T08:00:25.801Z,3.29
2019-02-07T08:01:26.635Z,3.19
2019-02-07T08:02:26.885Z,3.32
2019-02-07T08:03:26.890Z,3.28
2019-02-07T08:04:26.653Z,3.16
2019-02-07T08:05:27.730Z,3.19
2019-02-07T08:06:29.127Z,3.23
2019-02-07T08:07:27.104Z,3.41
2019-02-07T08:08:27.119Z,3.42
2019-02-07T08:09:27.201Z,3.40
2019-02-07T08:10:27.561Z,3.42
2019-02-07T08:11:27.649Z,3.48
2019-02-07T08:12:28.052Z,3.45
2019-02-07T08:13:28.044Z,3.45
2019-02-07T08:14:28.330Z,3.55
2019-02-07T08:15:28.196Z,3.42
2019-02-07T08:16:28.331Z,3.51
2019-02-07T08:17:28.724Z,3.51
2019-02-07T08:18:28.868Z,3.56
2019-02-07T08:19:29.319Z,3.56
2019-02-07T08:20:29.427Z,3.48
2019-02-07T08:21:29.838Z,3.58
2019-02-07T08:22:29.714Z,3.50
2019-02-07T08:23:29.972Z,3.59
2019-02-07T08:24:30.057Z,3.60
2019-02-07T08:25:30.120Z,3.58
2019-02-07T08:26:31.013Z,3.53
2019-02-07T08:27:30.733Z,3.47
2019-02-07T08:28:30.752Z,3.56
2019-02-07T08:29:31.389Z,3.60
2019-02-07T08:30:36.427Z,3.63
2019-02-07T08:31:32.619Z,3.74
2019-02-07T08:32:31.547Z,3.58
2019-02-07T08:33:31.825Z,3.60
2019-02-07T08:34:31.733Z,3.68
2019-02-07T08:35:31.893Z,3.78
2019-02-07T08:36:32.445Z,3.74
2019-02-07T08:37:32.548Z,3.65
2019-02-07T08:38:32.554Z,3.65
2019-02-07T08:39:32.687Z,3.62
2019-02-07T08:40:32.721Z,3.69
2019-02-07T08:41:32.895Z,3.68
2019-02-07T08:42:33.189Z,3.73
2019-02-07T08:43:33.087Z,3.70
2019-02-07T08:44:33.316Z,3.77
2019-02-07T08:45:33.532Z,3.66
2019-02-07T08:46:33.991Z,3.84
2019-02-07T08:47:34.004Z,3.78
2019-02-07T08:48:34.472Z,3.78
2019-02-07T08:49:34.196Z,3.74
2019-02-07T08:50:34.452Z,3.91
2019-02-07T08:51:34.836Z,3.80
2019-02-07T08:52:34.822Z,3.80
2019-02-07T08:53:34.984Z,3.84
2019-02-07T08:54:35.169Z,3.84
2019-02-07T08:55:35.683Z,3.80
2019-02-07T08:56:35.639Z,3.77
2019-02-07T08:57:35.845Z,3.70
2019-02-07T08:58:35.956Z,3.74
2019-02-07T08:59:36.062Z,3.81
2019-02-07T09:00:36.333Z,3.78
2019-02-07T09:01:36.825Z,3.69
2019-02-07T09:02:36.844Z,3.70
2019-02-07T09:03:36.821Z,3.78
2019-02-07T09:04:37.378Z,3.74
2019-02-07T09:05:37.247Z,3.73
2019-02-07T09:06:37.464Z,3.74
2019-02-07T09:07:37.933Z,3.68
2019-02-07T09:08:37.741Z,3.73
2019-02-07T09:09:37.797Z,3.70
2019-02-07T09:10:38.019Z,3.58
2019-02-07T09:11:38.240Z,3.56
2019-02-07T09:12:38.427Z,3.48
2019-02-07T09:13:38.683Z,3.42
2019-02-07T09:14:38.880Z,3.44
2019-02-07T09:15:38.946Z,3.41
2019-02-07T09:16:39.948Z,3.31
2019-02-07T09:17:39.310Z,3.37
2019-02-07T09:18:40.167Z,3.36
2019-02-07T09:19:39.841Z,3.26
2019-02-07T09:20:39.739Z,3.18
2019-02-07T09:21:40.615Z,3.22
2019-02-07T09:24:16.922Z,3.08
2019-02-07T09:25:16.417Z,3.08
2019-02-07T09:26:18.389Z,3.11
2019-02-07T09:27:17.801Z,3.03
2019-02-07T09:28:17.208Z,3.07
2019-02-07T09:29:17.060Z,3.05
2019-02-07T09:30:17.659Z,3.10
2019-02-07T09:31:16.942Z,3.13
2019-02-07T09:32:15.722Z,3.10
2019-02-07T09:33:15.801Z,2.98
2019-02-07T09:34:16.665Z,3.04
2019-02-07T09:35:16.379Z,3.04
2019-02-07T09:36:16.180Z,3.00
2019-02-07T09:37:16.520Z,3.05
2019-02-07T09:38:16.565Z,2.98
2019-02-07T09:39:17.146Z,3.16
2019-02-07T09:40:17.066Z,3.03
2019-02-07T09:41:17.365Z,3.00
2019-02-07T09:42:17.475Z,3.07
2019-02-07T09:43:17.642Z,2.87
2019-02-07T09:44:18.406Z,2.95
2019-02-07T09:45:17.780Z,3.00
2019-02-07T09:46:19.351Z,3.04
2019-02-07T09:47:18.127Z,3.00
2019-02-07T09:48:26.506Z,3.07
2019-02-07T09:49:18.579Z,3.10
2019-02-07T09:50:32.215Z,3.18
2019-02-07T09:51:21.470Z,3.08
2019-02-07T09:52:21.472Z,3.13
2019-02-07T09:53:24.308Z,3.14
2019-02-07T09:54:22.216Z,3.13
2019-02-07T09:55:22.284Z,3.07
2019-02-07T09:56:21.920Z,3.18
2019-02-07T09:57:21.821Z,3.11
2019-02-07T09:58:20.267Z,3.14
2019-02-07T09:59:21.902Z,3.26
2019-02-07T10:00:23.331Z,3.13
2019-02-07T10:01:20.830Z,3.32
2019-02-07T10:02:22.100Z,3.31
2019-02-07T10:03:21.336Z,3.40
2019-02-07T10:04:22.412Z,3.34
2019-02-07T10:05:21.871Z,3.26
2019-02-07T10:06:22.648Z,3.29
2019-02-07T10:07:24.937Z,3.21
2019-02-07T10:08:23.359Z,3.21
2019-02-07T10:09:24.638Z,3.19
2019-02-07T10:10:45.036Z,3.21
2019-02-07T10:11:25.373Z,3.18
2019-02-07T10:13:35.190Z,2.95
2019-02-07T10:14:27.585Z,2.86
2019-02-07T10:15:32.153Z,2.98
2019-02-07T10:17:25.469Z,3.10
2019-02-07T10:18:32.770Z,3.10
2019-02-07T10:19:25.598Z,3.13
2019-02-07T10:20:25.492Z,3.08
2019-02-07T10:21:25.281Z,3.14
2019-02-07T10:22:24.525Z,3.13
2019-02-07T10:23:41.459Z,3.16
2019-02-07T10:24:30.746Z,3.21
2019-02-07T10:25:29.816Z,3.05
2019-02-07T10:26:27.856Z,3.19
2019-02-07T10:27:28.907Z,3.16
2019-02-07T10:28:32.299Z,3.14
2019-02-07T10:29:28.513Z,3.22
2019-02-07T10:30:28.441Z,3.19
2019-02-07T10:31:30.960Z,3.16
2019-02-07T10:32:29.344Z,3.14
2019-02-07T10:33:28.075Z,3.11
2019-02-07T10:34:27.774Z,3.05
2019-02-07T10:35:26.882Z,3.18
2019-02-07T10:36:26.634Z,3.18
2019-02-07T10:37:27.853Z,3.13
2019-02-07T10:38:28.135Z,3.04
2019-02-07T10:39:29.377Z,3.10
2019-02-07T10:40:28.075Z,3.08
2019-02-07T10:41:44.032Z,2.95
2019-02-07T10:42:32.737Z,3.03
2019-02-07T10:43:30.905Z,2.89
2019-02-07T11:01:34.662Z,3.36
2019-02-07T11:03:11.529Z,3.29
2019-02-07T12:04:29.510Z,3.94
2019-02-07T12:13:41.086Z,3.83
2019-02-07T12:18:51.136Z,3.98
2019-02-07T12:19:50.487Z,3.92
2019-02-07T12:20:49.973Z,3.88
2019-02-07T12:21:50.073Z,3.94
2019-02-07T12:22:50.157Z,3.92
2019-02-07T12:23:50.305Z,3.81
2019-02-07T12:24:50.480Z,3.81
2019-02-07T12:25:50.582Z,3.76
2019-02-07T12:26:50.793Z,3.66
2019-02-07T12:27:50.899Z,3.69
2019-02-07T12:28:51.064Z,3.73
2019-02-07T12:29:51.167Z,3.59
2019-02-07T12:30:51.406Z,3.74
2019-02-07T12:31:51.536Z,3.60
2019-02-07T12:32:51.739Z,3.68
2019-02-07T12:33:51.881Z,3.60
2019-02-07T12:34:52.112Z,3.63
2019-02-07T12:35:52.144Z,3.73
2019-02-07T12:36:52.363Z,3.76
2019-02-07T12:37:52.561Z,3.63
2019-02-07T12:38:52.705Z,3.77
2019-02-07T12:39:52.842Z,3.91
2019-02-07T12:40:53.044Z,3.95
2019-02-07T12:41:53.214Z,3.96
2019-02-07T12:42:53.348Z,4.16
2019-02-07T12:43:53.503Z,4.22
2019-02-07T12:44:53.601Z,4.30
2019-02-07T12:45:53.863Z,4.35
2019-02-07T12:46:53.968Z,4.32
2019-02-07T12:47:54.148Z,4.31
2019-02-07T12:48:54.313Z,4.35
2019-02-07T12:49:54.422Z,4.44
2019-02-07T12:50:54.626Z,4.40
2019-02-07T12:51:54.798Z,4.55
2019-02-07T12:52:54.959Z,4.52
2019-02-07T12:53:55.003Z,4.45
2019-02-07T12:54:55.210Z,4.50
2019-02-07T12:55:55.449Z,4.58
2019-02-07T12:56:55.572Z,4.62
2019-02-07T12:57:55.840Z,4.68
2019-02-07T12:58:55.967Z,4.66
2019-02-07T12:59:56.165Z,4.68
2019-02-07T13:00:56.273Z,4.70
2019-02-07T13:01:56.514Z,4.66
2019-02-07T13:21:03.693Z,4.87
2019-02-07T13:49:03.737Z,4.20
2019-02-07T13:49:52.391Z,4.17
2019-02-07T13:50:51.458Z,4.24
2019-02-07T13:54:26.412Z,4.40
2019-02-07T13:55:28.522Z,4.40
2019-02-07T13:56:29.057Z,4.56
2019-02-07T14:00:36.884Z,4.53
2019-02-07T14:01:09.306Z,4.62
2019-02-07T14:06:17.949Z,4.99
2019-02-07T14:11:12.217Z,4.92
2019-02-07T14:12:28.384Z,4.89
2019-02-07T14:13:01.488Z,4.90
2019-02-07T14:17:43.713Z,4.70
2019-02-07T14:18:40.805Z,4.68
2019-02-07T14:19:40.218Z,4.74
2019-02-07T14:22:48.125Z,4.66
2019-02-07T14:31:49.772Z,4.73
2019-02-07T14:32:49.868Z,4.68
2019-02-07T14:33:48.094Z,4.66
2019-02-07T14:34:48.086Z,4.74
2019-02-07T14:35:48.201Z,4.82
2019-02-07T14:36:48.311Z,4.80
2019-02-07T14:37:48.567Z,4.77
2019-02-07T14:38:48.701Z,4.82
2019-02-07T14:39:48.849Z,4.68
2019-02-07T14:40:49.004Z,4.74
2019-02-07T14:41:49.104Z,4.68
2019-02-07T14:42:49.421Z,4.73
2019-02-07T14:43:49.520Z,4.71
2019-02-07T14:44:49.699Z,4.90
2019-02-07T14:45:49.814Z,4.93
2019-02-07T14:46:50.000Z,4.94
2019-02-07T14:47:50.201Z,4.90
2019-02-07T14:48:50.334Z,4.92
2019-02-07T14:49:50.493Z,5.00
2019-02-07T14:50:50.607Z,4.93
2019-02-07T14:51:50.766Z,4.87
2019-02-07T14:52:50.952Z,4.93
2019-02-07T14:53:51.109Z,4.97
2019-02-07T14:54:51.203Z,4.94
2019-02-07T14:55:51.428Z,4.82
2019-02-07T14:56:51.589Z,4.96
2019-02-07T14:57:51.748Z,4.90
2019-02-07T14:58:51.895Z,4.84
2019-02-07T14:59:52.076Z,4.93
2019-02-07T15:00:52.197Z,4.99
2019-02-07T15:01:52.385Z,4.96
2019-02-07T15:02:52.576Z,5.07
2019-02-07T15:03:52.770Z,4.94
2019-02-07T15:04:52.802Z,4.94
2019-02-07T15:05:53.023Z,4.92
2019-02-07T15:06:53.234Z,4.78
2019-02-07T15:07:53.286Z,4.92
2019-02-07T15:08:53.456Z,4.89
2019-02-07T15:09:53.629Z,4.84
2019-02-07T15:10:54.612Z,4.75
2019-02-07T15:11:53.960Z,4.89
2019-02-07T15:12:54.103Z,4.94
2019-02-07T15:13:54.236Z,4.86
2019-02-07T15:14:54.391Z,4.78
2019-02-07T15:15:54.624Z,4.77
2019-02-07T15:16:54.782Z,4.68
2019-02-07T15:17:54.954Z,4.74
2019-02-07T15:18:55.147Z,4.68
2019-02-07T15:19:55.241Z,4.68
2019-02-07T15:20:55.424Z,4.68
2019-02-07T15:21:55.543Z,4.74
2019-02-07T15:22:55.677Z,4.60
2019-02-07T15:23:55.859Z,4.73
2019-02-07T15:24:56.056Z,4.70
2019-02-07T15:25:56.175Z,4.84
2019-02-07T15:26:56.344Z,4.93
2019-02-07T15:27:56.436Z,4.87
2019-02-07T15:28:56.625Z,4.71
2019-02-07T15:29:56.742Z,4.68
2019-02-07T15:30:56.966Z,4.71
2019-02-07T15:31:57.102Z,4.82
2019-02-07T15:32:57.239Z,4.86
2019-02-07T15:33:57.430Z,4.89
2019-02-07T15:34:57.581Z,4.86
2019-02-07T15:35:57.763Z,4.82
2019-02-07T15:36:57.822Z,4.71
2019-02-07T15:37:57.963Z,4.63
2019-02-07T15:38:58.146Z,4.73
2019-02-07T15:39:58.354Z,4.70
2019-02-07T15:40:58.490Z,4.71
2019-02-07T15:41:58.675Z,4.71
2019-02-07T15:42:58.869Z,4.74
2019-02-07T15:43:59.005Z,4.71
2019-02-07T15:44:59.160Z,4.68
2019-02-07T15:45:59.292Z,4.73
2019-02-07T15:46:59.447Z,4.80
2019-02-07T15:47:59.661Z,4.75
2019-02-07T15:48:59.799Z,4.70
2019-02-07T15:50:00.041Z,4.73
2019-02-07T15:51:01.079Z,4.67
2019-02-07T15:52:00.316Z,4.53
2019-02-07T15:53:00.571Z,4.48
2019-02-07T15:54:00.662Z,4.41
2019-02-07T15:55:00.989Z,4.50
2019-02-07T15:56:01.005Z,4.42
2019-02-07T15:57:01.137Z,4.44
2019-02-07T15:58:01.312Z,4.37
2019-02-07T15:59:01.543Z,4.44
2019-02-07T16:00:01.661Z,4.37
2019-02-07T16:01:01.851Z,4.38
2019-02-07T16:02:02.043Z,4.35
2019-02-07T16:03:02.088Z,4.34
2019-02-07T16:04:02.248Z,4.28
2019-02-07T16:06:46.156Z,4.38
2019-02-07T16:07:46.974Z,4.30
2019-02-07T16:08:47.426Z,4.32
2019-02-07T16:09:48.483Z,4.32
2019-02-07T16:10:47.373Z,4.41
2019-02-07T16:11:47.592Z,4.44
2019-02-07T16:12:48.025Z,4.48
2019-02-07T16:13:47.929Z,4.49
2019-02-07T16:14:48.296Z,4.48
2019-02-07T16:15:48.398Z,4.48
2019-02-07T16:16:48.359Z,4.41
2019-02-07T16:17:48.831Z,4.45
2019-02-07T16:18:48.597Z,4.55
2019-02-07T16:19:49.407Z,4.52
2019-02-07T16:20:49.341Z,4.44
2019-02-07T16:21:48.852Z,4.53
2019-02-07T16:22:49.465Z,4.59
2019-02-07T16:23:49.365Z,4.55
2019-02-07T16:24:49.665Z,4.62
2019-02-07T16:25:49.909Z,4.67
2019-02-07T16:26:49.949Z,4.67
2019-02-07T16:27:50.433Z,4.67
2019-02-07T16:28:48.430Z,4.70
2019-02-07T16:29:48.393Z,4.70
2019-02-07T16:30:48.704Z,4.67
2019-02-07T16:31:48.754Z,4.73
2019-02-07T16:32:49.018Z,4.78
2019-02-07T16:33:49.049Z,4.67
2019-02-07T16:34:49.617Z,4.63
2019-02-07T16:35:49.531Z,4.70
2019-02-07T16:36:49.615Z,4.68
2019-02-07T16:37:49.670Z,4.70
2019-02-07T16:38:50.415Z,4.58
2019-02-07T16:39:51.033Z,4.63
2019-02-07T16:40:51.719Z,4.62
2019-02-07T16:41:50.674Z,4.68
2019-02-07T16:42:50.574Z,4.68
2019-02-07T16:43:50.742Z,4.63
2019-02-07T16:44:51.488Z,4.58
2019-02-07T16:47:35.779Z,4.58
2019-02-07T16:53:18.198Z,4.52
2019-02-07T16:54:19.103Z,4.49
2019-02-07T16:55:30.343Z,4.52
2019-02-07T16:56:18.960Z,4.49
2019-02-07T16:57:19.125Z,4.31
2019-02-07T16:58:20.251Z,4.40
2019-02-07T16:59:19.658Z,4.44
2019-02-07T17:00:19.249Z,4.32
2019-02-07T17:01:19.617Z,4.38
2019-02-07T17:02:20.122Z,4.35
2019-02-07T17:03:19.761Z,4.38
2019-02-07T17:04:19.671Z,4.30
2019-02-07T17:05:18.120Z,4.32
2019-02-07T17:06:18.128Z,4.32
2019-02-07T17:07:18.228Z,4.41
2019-02-07T17:08:18.284Z,4.44
2019-02-07T17:09:18.707Z,4.40
2019-02-07T17:10:18.960Z,4.40
2019-02-07T17:11:19.007Z,4.48
2019-02-07T17:12:19.026Z,4.37
2019-02-07T17:13:19.426Z,4.42
2019-02-07T17:14:19.490Z,4.41
2019-02-07T17:15:19.520Z,4.45
2019-02-07T17:16:21.027Z,4.38
2019-02-07T17:17:19.987Z,4.42
2019-02-07T17:18:21.275Z,4.42
2019-02-07T17:19:20.076Z,4.32
2019-02-07T17:20:20.350Z,4.48
2019-02-07T17:21:20.736Z,4.42
2019-02-07T17:22:20.661Z,4.42
2019-02-07T17:23:20.844Z,4.32
2019-02-07T17:24:20.986Z,4.40
2019-02-07T17:25:21.899Z,4.41
2019-02-07T17:26:21.387Z,4.30
2019-02-07T17:27:22.320Z,4.38
2019-02-07T17:28:21.729Z,4.38
2019-02-07T17:29:21.957Z,4.34
2019-02-07T17:30:22.241Z,4.41
2019-02-07T17:31:22.501Z,4.42
2019-02-07T17:32:22.599Z,4.30
2019-02-07T17:33:22.795Z,4.35
2019-02-07T17:34:22.772Z,4.41
2019-02-07T17:35:23.029Z,4.35
2019-02-07T17:36:23.143Z,4.32
2019-02-07T17:37:23.590Z,4.28
2019-02-07T17:38:23.521Z,4.24
2019-02-07T17:39:23.605Z,4.24
2019-02-07T17:40:23.932Z,4.26
2019-02-07T17:41:23.982Z,4.32
2019-02-07T17:42:24.189Z,4.32
2019-02-07T17:43:24.331Z,4.31
2019-02-07T17:44:24.514Z,4.30
2019-02-07T17:45:24.824Z,4.31
2019-02-07T17:46:24.872Z,4.40
2019-02-07T17:47:25.643Z,4.31
2019-02-07T17:48:25.107Z,4.35
2019-02-07T17:49:25.142Z,4.35
2019-02-07T17:50:25.265Z,4.44
2019-02-07T17:51:25.505Z,4.41
2019-02-07T17:52:25.577Z,4.49
2019-02-07T17:53:25.814Z,4.41
2019-02-07T17:54:25.931Z,4.41
2019-02-07T17:55:26.127Z,4.49
2019-02-07T17:56:26.308Z,4.42
2019-02-07T17:57:26.355Z,4.42
2019-02-07T17:58:26.533Z,4.49
2019-02-07T17:59:26.786Z,4.50
2019-02-07T18:00:26.935Z,4.50
2019-02-07T18:01:27.057Z,4.53
2019-02-07T18:02:27.216Z,4.52
2019-02-07T18:03:27.365Z,4.44
2019-02-07T18:04:27.554Z,4.48
2019-02-07T18:05:27.710Z,4.48
2019-02-07T18:06:27.952Z,4.44
2019-02-07T18:07:28.102Z,4.52
2019-02-07T18:08:28.176Z,4.58
2019-02-07T18:09:28.346Z,4.56
2019-02-07T18:10:28.777Z,4.55
2019-02-07T18:11:28.675Z,4.45
2019-02-07T18:12:28.775Z,4.44
2019-02-07T18:13:28.900Z,4.44
2019-02-07T18:14:29.094Z,4.55
2019-02-07T18:15:29.250Z,4.45
2019-02-07T18:16:29.418Z,4.55
2019-02-07T18:17:29.620Z,4.52
2019-02-07T18:18:29.770Z,4.52
2019-02-07T18:19:29.899Z,4.53
2019-02-07T18:20:30.114Z,4.60
2019-02-07T18:21:34.266Z,4.66
2019-02-07T18:22:30.389Z,4.58
2019-02-07T18:23:30.545Z,4.63
2019-02-07T18:24:30.649Z,4.73
2019-02-07T18:25:30.906Z,4.74
2019-02-07T18:26:31.042Z,4.63
2019-02-07T18:27:31.167Z,4.70
2019-02-07T18:28:31.326Z,4.70
2019-02-07T18:29:31.455Z,4.82
2019-02-07T18:30:31.609Z,4.87
2019-02-07T18:31:31.751Z,4.74
2019-02-07T18:32:31.912Z,4.87
2019-02-07T18:33:32.039Z,4.78
2019-02-07T18:34:32.216Z,4.86
2019-02-07T18:35:32.365Z,4.73
2019-02-07T18:36:32.625Z,4.84
2019-02-07T18:37:32.774Z,4.68
2019-02-07T18:38:32.887Z,4.63
2019-02-07T18:39:33.057Z,4.63
2019-02-07T18:40:33.186Z,4.73
2019-02-07T18:41:33.507Z,4.70
2019-02-07T18:42:33.579Z,4.66
2019-02-07T18:43:33.738Z,4.71
2019-02-07T18:44:33.819Z,4.66
2019-02-07T18:45:34.107Z,4.63
2019-02-07T18:46:34.225Z,4.70
2019-02-07T18:47:34.432Z,4.70
2019-02-07T18:48:34.566Z,4.71
2019-02-07T18:49:34.754Z,4.70
2019-02-07T18:50:34.880Z,4.73
2019-02-07T18:51:44.929Z,4.82
2019-02-07T18:52:35.301Z,4.86
2019-02-07T18:53:35.362Z,4.71
2019-02-07T18:54:35.571Z,4.73
2019-02-07T18:55:35.730Z,4.74
2019-02-07T18:56:35.763Z,4.68
2019-02-07T18:57:35.969Z,4.63
2019-02-07T18:58:36.103Z,4.71
2019-02-07T18:59:36.246Z,4.77
2019-02-07T19:00:36.508Z,4.73
2019-02-07T19:01:36.698Z,4.82
2019-02-07T19:02:36.874Z,4.87
2019-02-07T19:03:37.011Z,4.87
2019-02-07T19:04:37.223Z,4.87
2019-02-07T19:05:38.034Z,4.86
2019-02-07T19:06:37.430Z,4.84
2019-02-07T19:07:37.692Z,4.82
2019-02-07T19:08:37.780Z,4.92
2019-02-07T19:09:37.917Z,4.84
2019-02-07T19:10:38.082Z,4.80
2019-02-07T19:11:38.123Z,4.84
2019-02-07T19:12:38.308Z,4.87
2019-02-07T19:13:38.534Z,4.84
2019-02-07T19:14:38.698Z,4.82
2019-02-07T19:15:38.844Z,4.78
2019-02-07T19:16:38.994Z,4.89
2019-02-07T19:17:39.079Z,4.89
2019-02-07T19:18:39.390Z,4.89
2019-02-07T19:19:39.501Z,4.86
2019-02-07T19:20:39.604Z,4.84
2019-02-07T19:21:39.848Z,4.84
2019-02-07T19:22:39.945Z,4.92
2019-02-07T19:23:40.145Z,4.86
2019-02-07T19:24:40.266Z,4.86
2019-02-07T19:25:40.481Z,4.89
2019-02-07T19:26:40.668Z,4.75
2019-02-07T19:27:40.840Z,4.78
2019-02-07T19:28:41.151Z,4.87
2019-02-07T19:29:41.165Z,4.86
2019-02-07T19:30:41.314Z,4.70
2019-02-07T19:31:41.475Z,4.68
2019-02-07T19:32:41.693Z,4.70
2019-02-07T19:33:41.864Z,4.70
2019-02-07T19:34:41.924Z,4.68
2019-02-07T19:35:42.082Z,4.74
2019-02-07T19:36:42.305Z,4.66
2019-02-07T19:37:42.378Z,4.68
2019-02-07T19:38:42.605Z,4.63
2019-02-07T19:39:42.810Z,4.66
2019-02-07T19:40:42.928Z,4.58
2019-02-07T19:41:43.059Z,4.63
2019-02-07T19:42:43.187Z,4.66
2019-02-07T19:43:45.453Z,4.66
2019-02-07T19:44:43.604Z,4.62
2019-02-07T19:45:43.769Z,4.68
2019-02-07T19:46:43.962Z,4.71
2019-02-07T19:47:44.060Z,4.67
2019-02-07T19:48:44.245Z,4.67
2019-02-07T19:49:44.363Z,4.71
2019-02-07T19:50:44.553Z,4.77
2019-02-07T19:51:44.665Z,4.80
2019-02-07T19:52:44.815Z,4.86
2019-02-07T19:53:45.031Z,4.75
2019-02-07T19:54:45.188Z,4.73
2019-02-07T19:55:45.300Z,4.87
2019-02-07T19:56:45.527Z,4.92
2019-02-07T19:57:45.634Z,4.96
2019-02-07T19:58:45.719Z,4.94
2019-02-07T19:59:45.948Z,4.86
2019-02-07T20:00:46.138Z,4.93
2019-02-07T20:01:46.316Z,4.90
2019-02-07T20:02:46.503Z,5.00
2019-02-07T20:03:46.685Z,5.08
2019-02-07T20:04:46.828Z,5.02
2019-02-07T20:05:46.949Z,5.04
2019-02-07T20:06:47.087Z,5.05
2019-02-07T20:07:47.266Z,4.97
2019-02-07T20:08:47.480Z,4.99
2019-02-07T20:09:47.721Z,4.94
2019-02-07T20:10:47.805Z,4.99
2019-02-07T20:11:47.932Z,4.90
2019-02-07T20:12:48.066Z,4.87
2019-02-07T20:13:48.232Z,4.97
2019-02-07T20:14:48.338Z,5.04
2019-02-07T20:15:48.527Z,4.99
2019-02-07T20:16:48.673Z,4.90
2019-02-07T20:17:48.996Z,4.94
2019-02-07T20:18:49.124Z,5.00
2019-02-07T20:19:49.300Z,4.87
2019-02-07T20:20:49.529Z,4.86
2019-02-07T20:21:49.611Z,4.99
2019-02-07T20:22:49.806Z,4.96
2019-02-07T20:23:49.912Z,5.05
2019-02-07T20:24:50.162Z,5.02
2019-02-07T20:25:50.361Z,4.93
2019-02-07T20:26:50.493Z,5.08
2019-02-07T20:27:50.596Z,4.99
2019-02-07T20:28:51.780Z,5.00
2019-02-07T20:29:51.003Z,5.02
2019-02-07T20:31:51.323Z,5.08
2019-02-07T20:32:51.442Z,5.08
2019-02-07T20:33:51.629Z,4.99
2019-02-07T20:34:51.783Z,4.99
2019-02-07T20:35:51.927Z,5.05
2019-02-07T20:36:52.063Z,5.02
2019-02-07T20:37:52.235Z,5.08
2019-02-07T20:38:52.351Z,5.15